sensor_id;sensor_type;location;lat;lon;timestamp;temperature;humidity
48515;DHT22;34309;47.260;2.796;2024-03-23T00:54:22;21.90;31.10
48515;DHT22;34309;47.260;2.796;2024-03-23T00:56:49;21.90;31.10
48515;DHT22;34309;47.260;2.796;2024-03-23T00:59:16;21.90;31.00
48515;DHT22;34309;47.260;2.796;2024-03-23T01:01:43;21.90;31.10
48515;DHT22;34309;47.260;2.796;2024-03-23T01:04:10;21.90;31.00
48515;DHT22;34309;47.260;2.796;2024-03-23T01:06:37;21.90;30.90
48515;DHT22;34309;47.260;2.796;2024-03-23T01:09:05;21.90;31.00
48515;DHT22;34309;47.260;2.796;2024-03-23T01:11:33;21.90;31.10
48515;DHT22;34309;47.260;2.796;2024-03-23T01:14:01;21.90;31.00
48515;DHT22;34309;47.260;2.796;2024-03-23T01:16:28;21.90;31.10
48515;DHT22;34309;47.260;2.796;2024-03-23T01:18:56;21.90;31.00
48515;DHT22;34309;47.260;2.796;2024-03-23T01:21:23;21.90;31.00
48515;DHT22;34309;47.260;2.796;2024-03-23T01:23:50;21.90;31.10
48515;DHT22;34309;47.260;2.796;2024-03-23T01:26:17;21.90;31.00
48515;DHT22;34309;47.260;2.796;2024-03-23T01:28:45;21.90;31.10
48515;DHT22;34309;47.260;2.796;2024-03-23T01:31:12;21.90;31.00
48515;DHT22;34309;47.260;2.796;2024-03-23T01:33:40;21.90;31.00
48515;DHT22;34309;47.260;2.796;2024-03-23T01:36:06;21.90;31.00
48515;DHT22;34309;47.260;2.796;2024-03-23T01:38:34;21.90;30.90
48515;DHT22;34309;47.260;2.796;2024-03-23T01:41:01;21.90;31.50
48515;DHT22;34309;47.260;2.796;2024-03-23T01:43:28;21.80;31.20
48515;DHT22;34309;47.260;2.796;2024-03-23T01:45:56;21.80;31.30
48515;DHT22;34309;47.260;2.796;2024-03-23T01:48:24;21.80;31.20
48515;DHT22;34309;47.260;2.796;2024-03-23T01:50:51;21.80;31.30
48515;DHT22;34309;47.260;2.796;2024-03-23T01:53:19;21.90;31.20
48515;DHT22;34309;47.260;2.796;2024-03-23T01:55:47;21.80;31.20
48515;DHT22;34309;47.260;2.796;2024-03-23T01:58:15;21.80;31.10
48515;DHT22;34309;47.260;2.796;2024-03-23T02:00:42;21.80;31.20
48515;DHT22;34309;47.260;2.796;2024-03-23T02:03:24;21.80;31.20
48515;DHT22;34309;47.260;2.796;2024-03-23T02:05:51;21.80;31.10
48515;DHT22;34309;47.260;2.796;2024-03-23T02:08:20;21.80;31.10
48515;DHT22;34309;47.260;2.796;2024-03-23T02:10:47;21.80;31.10
48515;DHT22;34309;47.260;2.796;2024-03-23T02:13:15;21.80;31.00
48515;DHT22;34309;47.260;2.796;2024-03-23T02:15:42;21.80;31.20
48515;DHT22;34309;47.260;2.796;2024-03-23T02:18:10;21.80;31.90
48515;DHT22;34309;47.260;2.796;2024-03-23T02:20:39;21.80;31.00
48515;DHT22;34309;47.260;2.796;2024-03-23T02:23:13;21.80;30.90
48515;DHT22;34309;47.260;2.796;2024-03-23T02:25:40;21.80;30.90
48515;DHT22;34309;47.260;2.796;2024-03-23T02:28:08;21.80;31.00
48515;DHT22;34309;47.260;2.796;2024-03-23T02:30:34;21.80;31.10
48515;DHT22;34309;47.260;2.796;2024-03-23T02:33:02;21.80;31.10
48515;DHT22;34309;47.260;2.796;2024-03-23T02:35:28;21.80;31.20
48515;DHT22;34309;47.260;2.796;2024-03-23T02:37:56;21.80;30.90
48515;DHT22;34309;47.260;2.796;2024-03-23T02:40:25;21.80;30.90
48515;DHT22;34309;47.260;2.796;2024-03-23T02:42:53;21.80;30.80
48515;DHT22;34309;47.260;2.796;2024-03-23T02:45:19;21.70;30.70
48515;DHT22;34309;47.260;2.796;2024-03-23T02:47:47;21.80;30.80
48515;DHT22;34309;47.260;2.796;2024-03-23T02:50:18;21.70;30.70
48515;DHT22;34309;47.260;2.796;2024-03-23T02:52:45;21.70;30.80
48515;DHT22;34309;47.260;2.796;2024-03-23T02:55:12;21.70;30.50
48515;DHT22;34309;47.260;2.796;2024-03-23T02:57:41;21.70;30.90
48515;DHT22;34309;47.260;2.796;2024-03-23T03:00:08;21.70;30.60
48515;DHT22;34309;47.260;2.796;2024-03-23T03:02:37;21.70;30.60
48515;DHT22;34309;47.260;2.796;2024-03-23T03:05:04;21.70;30.60
48515;DHT22;34309;47.260;2.796;2024-03-23T03:07:33;21.70;30.60
48515;DHT22;34309;47.260;2.796;2024-03-23T03:10:00;21.70;30.60
48515;DHT22;34309;47.260;2.796;2024-03-23T03:12:27;21.70;30.60
48515;DHT22;34309;47.260;2.796;2024-03-23T03:14:55;21.70;30.70
48515;DHT22;34309;47.260;2.796;2024-03-23T03:17:23;21.70;30.60
48515;DHT22;34309;47.260;2.796;2024-03-23T03:19:50;21.70;30.60
48515;DHT22;34309;47.260;2.796;2024-03-23T03:22:21;21.70;30.60
48515;DHT22;34309;47.260;2.796;2024-03-23T03:24:48;21.70;30.60
48515;DHT22;34309;47.260;2.796;2024-03-23T03:27:16;21.60;30.50
48515;DHT22;34309;47.260;2.796;2024-03-23T03:29:42;21.60;30.40
48515;DHT22;34309;47.260;2.796;2024-03-23T03:32:11;21.60;30.30
48515;DHT22;34309;47.260;2.796;2024-03-23T03:34:38;21.60;30.40
48515;DHT22;34309;47.260;2.796;2024-03-23T03:37:05;21.60;30.50
48515;DHT22;34309;47.260;2.796;2024-03-23T03:39:32;21.60;30.50
48515;DHT22;34309;47.260;2.796;2024-03-23T03:41:59;21.60;30.50
48515;DHT22;34309;47.260;2.796;2024-03-23T03:44:27;21.60;30.50
48515;DHT22;34309;47.260;2.796;2024-03-23T03:46:55;21.60;30.60
48515;DHT22;34309;47.260;2.796;2024-03-23T03:49:23;21.60;30.50
48515;DHT22;34309;47.260;2.796;2024-03-23T03:51:51;21.60;30.30
48515;DHT22;34309;47.260;2.796;2024-03-23T03:54:17;21.60;30.10
48515;DHT22;34309;47.260;2.796;2024-03-23T03:56:45;21.60;30.40
48515;DHT22;34309;47.260;2.796;2024-03-23T03:59:11;21.60;30.10
48515;DHT22;34309;47.260;2.796;2024-03-23T04:01:39;21.60;30.20
48515;DHT22;34309;47.260;2.796;2024-03-23T04:04:05;21.60;30.20
48515;DHT22;34309;47.260;2.796;2024-03-23T04:06:34;21.60;30.20
48515;DHT22;34309;47.260;2.796;2024-03-23T04:09:01;21.50;30.20
48515;DHT22;34309;47.260;2.796;2024-03-23T04:11:29;21.50;30.30
48515;DHT22;34309;47.260;2.796;2024-03-23T04:13:56;21.50;30.10
48515;DHT22;34309;47.260;2.796;2024-03-23T04:16:27;21.50;30.10
48515;DHT22;34309;47.260;2.796;2024-03-23T04:18:54;21.50;30.20
48515;DHT22;34309;47.260;2.796;2024-03-23T04:21:22;21.50;30.10
48515;DHT22;34309;47.260;2.796;2024-03-23T04:23:50;21.50;30.20
48515;DHT22;34309;47.260;2.796;2024-03-23T04:26:17;21.50;30.00
48515;DHT22;34309;47.260;2.796;2024-03-23T04:28:44;21.50;30.10
48515;DHT22;34309;47.260;2.796;2024-03-23T04:31:11;21.50;30.00
48515;DHT22;34309;47.260;2.796;2024-03-23T04:33:38;21.50;30.20
48515;DHT22;34309;47.260;2.796;2024-03-23T04:36:06;21.50;30.10
48515;DHT22;34309;47.260;2.796;2024-03-23T04:38:33;21.50;30.10
48515;DHT22;34309;47.260;2.796;2024-03-23T04:41:02;21.50;30.10
48515;DHT22;34309;47.260;2.796;2024-03-23T04:43:29;21.50;30.10
48515;DHT22;34309;47.260;2.796;2024-03-23T04:45:56;21.40;30.00
48515;DHT22;34309;47.260;2.796;2024-03-23T04:48:24;21.50;30.10
48515;DHT22;34309;47.260;2.796;2024-03-23T04:50:55;21.50;30.10
48515;DHT22;34309;47.260;2.796;2024-03-23T04:53:23;21.40;30.00
48515;DHT22;34309;47.260;2.796;2024-03-23T04:55:54;21.40;30.00
48515;DHT22;34309;47.260;2.796;2024-03-23T04:58:24;21.40;30.00
48515;DHT22;34309;47.260;2.796;2024-03-23T05:00:53;21.40;29.80
48515;DHT22;34309;47.260;2.796;2024-03-23T05:03:22;21.40;30.00
48515;DHT22;34309;47.260;2.796;2024-03-23T05:05:48;21.40;30.00
48515;DHT22;34309;47.260;2.796;2024-03-23T05:08:16;21.40;30.00
48515;DHT22;34309;47.260;2.796;2024-03-23T05:10:44;21.40;29.90
48515;DHT22;34309;47.260;2.796;2024-03-23T05:13:10;21.40;29.90
48515;DHT22;34309;47.260;2.796;2024-03-23T05:15:39;21.40;29.90
48515;DHT22;34309;47.260;2.796;2024-03-23T05:18:06;21.40;29.90
48515;DHT22;34309;47.260;2.796;2024-03-23T05:20:34;21.40;29.70
48515;DHT22;34309;47.260;2.796;2024-03-23T05:23:00;21.40;29.90
48515;DHT22;34309;47.260;2.796;2024-03-23T05:25:28;21.40;29.70
48515;DHT22;34309;47.260;2.796;2024-03-23T05:27:55;21.40;29.80
48515;DHT22;34309;47.260;2.796;2024-03-23T05:30:22;21.30;29.80
48515;DHT22;34309;47.260;2.796;2024-03-23T05:32:51;21.30;29.80
48515;DHT22;34309;47.260;2.796;2024-03-23T05:35:18;21.30;29.80
48515;DHT22;34309;47.260;2.796;2024-03-23T05:37:45;21.30;29.70
48515;DHT22;34309;47.260;2.796;2024-03-23T05:40:13;21.30;29.90
48515;DHT22;34309;47.260;2.796;2024-03-23T05:42:41;21.30;29.90
48515;DHT22;34309;47.260;2.796;2024-03-23T05:45:09;21.30;29.90
48515;DHT22;34309;47.260;2.796;2024-03-23T05:47:35;21.30;29.80
48515;DHT22;34309;47.260;2.796;2024-03-23T05:50:05;21.30;29.80
48515;DHT22;34309;47.260;2.796;2024-03-23T05:52:32;21.30;29.80
48515;DHT22;34309;47.260;2.796;2024-03-23T05:54:59;21.30;29.90
48515;DHT22;34309;47.260;2.796;2024-03-23T05:57:26;21.30;29.90
48515;DHT22;34309;47.260;2.796;2024-03-23T05:59:53;21.30;29.90
48515;DHT22;34309;47.260;2.796;2024-03-23T06:02:20;21.30;30.10
48515;DHT22;34309;47.260;2.796;2024-03-23T06:04:48;21.30;29.90
48515;DHT22;34309;47.260;2.796;2024-03-23T06:07:16;21.30;29.80
48515;DHT22;34309;47.260;2.796;2024-03-23T06:09:43;21.30;29.90
48515;DHT22;34309;47.260;2.796;2024-03-23T06:12:10;21.20;29.90
48515;DHT22;34309;47.260;2.796;2024-03-23T06:14:37;21.30;30.00
48515;DHT22;34309;47.260;2.796;2024-03-23T06:17:04;21.20;30.00
48515;DHT22;34309;47.260;2.796;2024-03-23T06:19:32;21.20;29.70
48515;DHT22;34309;47.260;2.796;2024-03-23T06:21:58;21.20;29.80
48515;DHT22;34309;47.260;2.796;2024-03-23T06:24:27;21.30;29.90
48515;DHT22;34309;47.260;2.796;2024-03-23T06:26:54;21.20;29.80
48515;DHT22;34309;47.260;2.796;2024-03-23T06:29:21;21.20;29.80
48515;DHT22;34309;47.260;2.796;2024-03-23T06:31:53;21.20;29.80
48515;DHT22;34309;47.260;2.796;2024-03-23T06:34:21;21.20;30.00
48515;DHT22;34309;47.260;2.796;2024-03-23T06:36:49;21.20;29.90
48515;DHT22;34309;47.260;2.796;2024-03-23T06:39:16;21.20;30.00
48515;DHT22;34309;47.260;2.796;2024-03-23T06:41:51;21.20;30.00
48515;DHT22;34309;47.260;2.796;2024-03-23T06:44:19;21.20;30.00
48515;DHT22;34309;47.260;2.796;2024-03-23T06:46:46;21.20;29.90
48515;DHT22;34309;47.260;2.796;2024-03-23T06:49:14;21.20;30.00
48515;DHT22;34309;47.260;2.796;2024-03-23T06:51:41;21.10;29.80
48515;DHT22;34309;47.260;2.796;2024-03-23T06:54:09;21.20;29.90
48515;DHT22;34309;47.260;2.796;2024-03-23T06:56:35;21.10;29.80
48515;DHT22;34309;47.260;2.796;2024-03-23T06:59:05;21.20;29.90
48515;DHT22;34309;47.260;2.796;2024-03-23T07:01:32;21.10;29.80
48515;DHT22;34309;47.260;2.796;2024-03-23T07:03:59;21.10;29.80
48515;DHT22;34309;47.260;2.796;2024-03-23T07:06:25;21.20;29.70
48515;DHT22;34309;47.260;2.796;2024-03-23T07:08:53;21.10;29.80
48515;DHT22;34309;47.260;2.796;2024-03-23T07:11:20;21.10;29.70
48515;DHT22;34309;47.260;2.796;2024-03-23T07:13:49;21.10;29.80
48515;DHT22;34309;47.260;2.796;2024-03-23T07:16:18;21.10;29.80
48515;DHT22;34309;47.260;2.796;2024-03-23T07:18:46;21.10;29.80
48515;DHT22;34309;47.260;2.796;2024-03-23T07:21:14;21.10;29.70
48515;DHT22;34309;47.260;2.796;2024-03-23T07:23:42;21.10;29.70
48515;DHT22;34309;47.260;2.796;2024-03-23T07:26:11;21.10;29.60
48515;DHT22;34309;47.260;2.796;2024-03-23T07:28:38;21.10;29.70
48515;DHT22;34309;47.260;2.796;2024-03-23T07:31:10;21.10;29.70
48515;DHT22;34309;47.260;2.796;2024-03-23T07:33:44;21.10;29.70
48515;DHT22;34309;47.260;2.796;2024-03-23T07:36:11;21.10;29.60
48515;DHT22;34309;47.260;2.796;2024-03-23T07:38:40;21.10;29.70
48515;DHT22;34309;47.260;2.796;2024-03-23T07:41:08;21.10;29.70
48515;DHT22;34309;47.260;2.796;2024-03-23T07:43:36;21.10;29.50
48515;DHT22;34309;47.260;2.796;2024-03-23T07:46:03;21.10;29.30
48515;DHT22;34309;47.260;2.796;2024-03-23T07:48:31;21.10;29.30
48515;DHT22;34309;47.260;2.796;2024-03-23T07:51:03;21.00;29.40
48515;DHT22;34309;47.260;2.796;2024-03-23T07:53:32;21.00;29.30
48515;DHT22;34309;47.260;2.796;2024-03-23T07:56:00;21.00;29.30
48515;DHT22;34309;47.260;2.796;2024-03-23T07:58:28;21.00;29.40
48515;DHT22;34309;47.260;2.796;2024-03-23T08:00:55;21.00;29.40
48515;DHT22;34309;47.260;2.796;2024-03-23T08:03:23;21.00;29.40
48515;DHT22;34309;47.260;2.796;2024-03-23T08:05:49;21.00;29.20
48515;DHT22;34309;47.260;2.796;2024-03-23T08:08:18;21.00;29.30
48515;DHT22;34309;47.260;2.796;2024-03-23T08:10:48;21.00;29.30
48515;DHT22;34309;47.260;2.796;2024-03-23T08:13:16;21.00;29.40
48515;DHT22;34309;47.260;2.796;2024-03-23T08:15:43;21.00;29.30
48515;DHT22;34309;47.260;2.796;2024-03-23T08:18:13;21.00;29.30
48515;DHT22;34309;47.260;2.796;2024-03-23T08:20:39;21.00;29.20
48515;DHT22;34309;47.260;2.796;2024-03-23T08:23:07;21.00;29.30
48515;DHT22;34309;47.260;2.796;2024-03-23T08:25:35;21.00;29.20
48515;DHT22;34309;47.260;2.796;2024-03-23T08:28:03;21.00;29.10
48515;DHT22;34309;47.260;2.796;2024-03-23T08:30:30;21.00;29.10
48515;DHT22;34309;47.260;2.796;2024-03-23T08:32:58;21.00;29.10
48515;DHT22;34309;47.260;2.796;2024-03-23T08:35:25;21.00;29.20
48515;DHT22;34309;47.260;2.796;2024-03-23T08:37:52;21.00;29.30
48515;DHT22;34309;47.260;2.796;2024-03-23T08:40:18;21.00;29.30
48515;DHT22;34309;47.260;2.796;2024-03-23T08:42:47;21.00;29.10
48515;DHT22;34309;47.260;2.796;2024-03-23T08:45:14;21.00;29.30
48515;DHT22;34309;47.260;2.796;2024-03-23T08:47:41;21.00;29.20
48515;DHT22;34309;47.260;2.796;2024-03-23T08:50:08;21.00;29.10
48515;DHT22;34309;47.260;2.796;2024-03-23T08:52:36;21.00;29.20
48515;DHT22;34309;47.260;2.796;2024-03-23T08:55:02;21.00;29.20
48515;DHT22;34309;47.260;2.796;2024-03-23T08:57:30;21.00;29.00
48515;DHT22;34309;47.260;2.796;2024-03-23T08:59:58;21.00;29.00
48515;DHT22;34309;47.260;2.796;2024-03-23T09:02:26;20.90;29.20
48515;DHT22;34309;47.260;2.796;2024-03-23T09:04:52;20.90;29.30
48515;DHT22;34309;47.260;2.796;2024-03-23T09:07:20;20.90;29.30
48515;DHT22;34309;47.260;2.796;2024-03-23T09:09:46;20.90;29.40
48515;DHT22;34309;47.260;2.796;2024-03-23T09:12:14;20.90;29.20
48515;DHT22;34309;47.260;2.796;2024-03-23T09:14:40;20.90;29.30
48515;DHT22;34309;47.260;2.796;2024-03-23T09:17:09;20.90;29.20
48515;DHT22;34309;47.260;2.796;2024-03-23T09:19:36;20.90;29.30
48515;DHT22;34309;47.260;2.796;2024-03-23T09:22:04;20.90;29.20
48515;DHT22;34309;47.260;2.796;2024-03-23T09:24:30;20.90;29.10
48515;DHT22;34309;47.260;2.796;2024-03-23T09:26:58;20.90;29.00
48515;DHT22;34309;47.260;2.796;2024-03-23T09:29:24;20.90;29.10
48515;DHT22;34309;47.260;2.796;2024-03-23T09:31:52;20.90;29.00
48515;DHT22;34309;47.260;2.796;2024-03-23T09:34:20;20.90;29.20
48515;DHT22;34309;47.260;2.796;2024-03-23T09:36:51;20.90;29.30
48515;DHT22;34309;47.260;2.796;2024-03-23T09:39:19;20.90;29.10
48515;DHT22;34309;47.260;2.796;2024-03-23T09:41:45;20.90;29.20
48515;DHT22;34309;47.260;2.796;2024-03-23T09:44:13;20.90;29.30
48515;DHT22;34309;47.260;2.796;2024-03-23T09:46:40;20.90;29.30
48515;DHT22;34309;47.260;2.796;2024-03-23T09:49:07;20.90;29.30
48515;DHT22;34309;47.260;2.796;2024-03-23T09:51:37;20.90;29.30
48515;DHT22;34309;47.260;2.796;2024-03-23T09:54:05;20.90;29.30
48515;DHT22;34309;47.260;2.796;2024-03-23T09:56:31;20.90;29.40
48515;DHT22;34309;47.260;2.796;2024-03-23T09:59:02;20.90;29.40
48515;DHT22;34309;47.260;2.796;2024-03-23T10:01:30;20.90;29.40
48515;DHT22;34309;47.260;2.796;2024-03-23T10:03:57;20.90;29.40
48515;DHT22;34309;47.260;2.796;2024-03-23T10:06:24;20.90;29.40
48515;DHT22;34309;47.260;2.796;2024-03-23T10:08:55;20.90;29.40
48515;DHT22;34309;47.260;2.796;2024-03-23T10:11:22;20.90;29.30
48515;DHT22;34309;47.260;2.796;2024-03-23T10:13:51;20.90;29.50
48515;DHT22;34309;47.260;2.796;2024-03-23T10:16:22;20.90;29.20
48515;DHT22;34309;47.260;2.796;2024-03-23T10:18:50;20.80;29.10
48515;DHT22;34309;47.260;2.796;2024-03-23T10:21:18;20.80;29.20
48515;DHT22;34309;47.260;2.796;2024-03-23T10:23:46;20.80;29.20
48515;DHT22;34309;47.260;2.796;2024-03-23T10:26:16;20.90;29.30
48515;DHT22;34309;47.260;2.796;2024-03-23T10:28:51;20.80;29.30
48515;DHT22;34309;47.260;2.796;2024-03-23T10:31:18;20.80;29.20
48515;DHT22;34309;47.260;2.796;2024-03-23T10:33:46;20.90;29.30
48515;DHT22;34309;47.260;2.796;2024-03-23T10:36:13;20.90;29.30
48515;DHT22;34309;47.260;2.796;2024-03-23T10:38:42;20.90;29.30
48515;DHT22;34309;47.260;2.796;2024-03-23T10:41:10;20.80;29.40
48515;DHT22;34309;47.260;2.796;2024-03-23T10:43:39;20.80;29.40
48515;DHT22;34309;47.260;2.796;2024-03-23T10:46:06;20.80;29.20
48515;DHT22;34309;47.260;2.796;2024-03-23T10:48:35;20.90;29.60
48515;DHT22;34309;47.260;2.796;2024-03-23T10:51:01;20.80;29.40
48515;DHT22;34309;47.260;2.796;2024-03-23T10:53:29;20.90;29.50
48515;DHT22;34309;47.260;2.796;2024-03-23T10:55:58;20.80;30.10
48515;DHT22;34309;47.260;2.796;2024-03-23T10:58:31;20.80;29.50
48515;DHT22;34309;47.260;2.796;2024-03-23T11:00:59;20.90;29.50
48515;DHT22;34309;47.260;2.796;2024-03-23T11:03:31;20.80;29.50
48515;DHT22;34309;47.260;2.796;2024-03-23T11:05:58;20.90;29.60
48515;DHT22;34309;47.260;2.796;2024-03-23T11:08:36;20.90;29.70
48515;DHT22;34309;47.260;2.796;2024-03-23T11:11:14;20.80;29.50
48515;DHT22;34309;47.260;2.796;2024-03-23T11:13:42;20.80;29.40
48515;DHT22;34309;47.260;2.796;2024-03-23T11:16:15;20.80;29.50
48515;DHT22;34309;47.260;2.796;2024-03-23T11:18:43;20.80;29.40
48515;DHT22;34309;47.260;2.796;2024-03-23T11:21:11;20.80;29.40
48515;DHT22;34309;47.260;2.796;2024-03-23T11:24:13;20.80;29.40
48515;DHT22;34309;47.260;2.796;2024-03-23T11:26:40;20.80;29.20
48515;DHT22;34309;47.260;2.796;2024-03-23T11:29:10;20.80;29.30
48515;DHT22;34309;47.260;2.796;2024-03-23T11:31:39;20.80;29.20
48515;DHT22;34309;47.260;2.796;2024-03-23T11:34:12;20.90;29.10
48515;DHT22;34309;47.260;2.796;2024-03-23T11:36:39;20.90;29.10
48515;DHT22;34309;47.260;2.796;2024-03-23T11:39:13;20.90;29.10
48515;DHT22;34309;47.260;2.796;2024-03-23T11:41:49;20.90;28.90
48515;DHT22;34309;47.260;2.796;2024-03-23T11:44:18;20.80;28.80
48515;DHT22;34309;47.260;2.796;2024-03-23T11:46:46;20.80;28.80
48515;DHT22;34309;47.260;2.796;2024-03-23T11:49:24;20.80;28.80
48515;DHT22;34309;47.260;2.796;2024-03-23T11:51:51;20.80;28.70
48515;DHT22;34309;47.260;2.796;2024-03-23T11:54:21;20.80;28.70
48515;DHT22;34309;47.260;2.796;2024-03-23T11:56:55;20.80;28.50
48515;DHT22;34309;47.260;2.796;2024-03-23T11:59:36;20.80;28.50
48515;DHT22;34309;47.260;2.796;2024-03-23T12:02:08;20.80;28.40
48515;DHT22;34309;47.260;2.796;2024-03-23T12:04:37;20.80;28.40
48515;DHT22;34309;47.260;2.796;2024-03-23T12:07:11;20.80;28.40
48515;DHT22;34309;47.260;2.796;2024-03-23T12:09:40;20.80;28.40
48515;DHT22;34309;47.260;2.796;2024-03-23T12:12:13;20.90;28.50
48515;DHT22;34309;47.260;2.796;2024-03-23T12:14:42;20.90;28.50
48515;DHT22;34309;47.260;2.796;2024-03-23T12:17:12;20.80;28.50
48515;DHT22;34309;47.260;2.796;2024-03-23T12:19:40;20.80;28.50
48515;DHT22;34309;47.260;2.796;2024-03-23T12:22:07;20.80;28.50
48515;DHT22;34309;47.260;2.796;2024-03-23T12:24:35;20.80;28.40
48515;DHT22;34309;47.260;2.796;2024-03-23T12:27:03;20.80;28.50
48515;DHT22;34309;47.260;2.796;2024-03-23T12:29:30;20.80;28.50
48515;DHT22;34309;47.260;2.796;2024-03-23T12:31:59;20.80;28.60
48515;DHT22;34309;47.260;2.796;2024-03-23T12:34:29;20.80;28.60
48515;DHT22;34309;47.260;2.796;2024-03-23T12:36:56;20.80;28.60
48515;DHT22;34309;47.260;2.796;2024-03-23T12:39:24;20.80;28.60
48515;DHT22;34309;47.260;2.796;2024-03-23T12:41:50;20.80;28.50
48515;DHT22;34309;47.260;2.796;2024-03-23T12:44:19;20.80;28.50
48515;DHT22;34309;47.260;2.796;2024-03-23T12:46:45;20.80;28.30
48515;DHT22;34309;47.260;2.796;2024-03-23T12:49:13;20.80;28.30
48515;DHT22;34309;47.260;2.796;2024-03-23T12:51:48;20.80;28.50
48515;DHT22;34309;47.260;2.796;2024-03-23T12:54:21;20.80;28.40
48515;DHT22;34309;47.260;2.796;2024-03-23T12:56:48;20.80;28.30
48515;DHT22;34309;47.260;2.796;2024-03-23T12:59:16;20.70;28.30
48515;DHT22;34309;47.260;2.796;2024-03-23T13:01:42;20.80;28.40
48515;DHT22;34309;47.260;2.796;2024-03-23T13:04:10;20.80;28.30
48515;DHT22;34309;47.260;2.796;2024-03-23T13:06:37;20.80;28.20
48515;DHT22;34309;47.260;2.796;2024-03-23T13:09:06;20.80;28.30
48515;DHT22;34309;47.260;2.796;2024-03-23T13:11:32;20.80;28.40
48515;DHT22;34309;47.260;2.796;2024-03-23T13:14:00;20.80;28.50
48515;DHT22;34309;47.260;2.796;2024-03-23T13:16:26;20.80;28.20
48515;DHT22;34309;47.260;2.796;2024-03-23T13:18:54;20.80;28.30
48515;DHT22;34309;47.260;2.796;2024-03-23T13:21:20;20.70;28.20
48515;DHT22;34309;47.260;2.796;2024-03-23T13:23:48;20.80;28.30
48515;DHT22;34309;47.260;2.796;2024-03-23T13:26:17;20.70;28.20
48515;DHT22;34309;47.260;2.796;2024-03-23T13:28:46;20.70;28.10
48515;DHT22;34309;47.260;2.796;2024-03-23T13:31:12;20.70;28.20
48515;DHT22;34309;47.260;2.796;2024-03-23T13:33:40;20.80;28.20
48515;DHT22;34309;47.260;2.796;2024-03-23T13:36:08;20.70;28.10
48515;DHT22;34309;47.260;2.796;2024-03-23T13:38:35;20.80;28.10
48515;DHT22;34309;47.260;2.796;2024-03-23T13:41:02;20.70;28.60
48515;DHT22;34309;47.260;2.796;2024-03-23T13:43:34;20.70;27.90
48515;DHT22;34309;47.260;2.796;2024-03-23T13:46:00;20.80;28.10
48515;DHT22;34309;47.260;2.796;2024-03-23T13:48:28;20.70;28.00
48515;DHT22;34309;47.260;2.796;2024-03-23T13:50:58;20.70;28.00
48515;DHT22;34309;47.260;2.796;2024-03-23T13:53:26;20.70;28.10
48515;DHT22;34309;47.260;2.796;2024-03-23T13:55:52;20.70;28.00
48515;DHT22;34309;47.260;2.796;2024-03-23T13:58:21;20.70;27.80
48515;DHT22;34309;47.260;2.796;2024-03-23T14:00:49;20.70;27.90
48515;DHT22;34309;47.260;2.796;2024-03-23T14:03:16;20.70;27.70
48515;DHT22;34309;47.260;2.796;2024-03-23T14:05:44;20.70;27.70
48515;DHT22;34309;47.260;2.796;2024-03-23T14:08:13;20.70;27.70
48515;DHT22;34309;47.260;2.796;2024-03-23T14:10:41;20.70;27.80
48515;DHT22;34309;47.260;2.796;2024-03-23T14:13:09;20.70;27.70
48515;DHT22;34309;47.260;2.796;2024-03-23T14:15:35;20.70;27.70
48515;DHT22;34309;47.260;2.796;2024-03-23T14:18:05;20.70;27.70
48515;DHT22;34309;47.260;2.796;2024-03-23T14:20:32;20.70;27.90
48515;DHT22;34309;47.260;2.796;2024-03-23T14:23:00;20.70;27.80
48515;DHT22;34309;47.260;2.796;2024-03-23T14:25:27;20.70;27.80
48515;DHT22;34309;47.260;2.796;2024-03-23T14:27:55;20.70;27.70
48515;DHT22;34309;47.260;2.796;2024-03-23T14:30:21;20.70;27.60
48515;DHT22;34309;47.260;2.796;2024-03-23T14:32:49;20.70;27.70
48515;DHT22;34309;47.260;2.796;2024-03-23T14:35:17;20.70;27.60
48515;DHT22;34309;47.260;2.796;2024-03-23T14:37:44;20.70;27.80
48515;DHT22;34309;47.260;2.796;2024-03-23T14:40:13;20.70;27.70
48515;DHT22;34309;47.260;2.796;2024-03-23T14:42:40;20.70;27.70
48515;DHT22;34309;47.260;2.796;2024-03-23T14:45:08;20.70;27.60
48515;DHT22;34309;47.260;2.796;2024-03-23T14:47:37;20.70;27.60
48515;DHT22;34309;47.260;2.796;2024-03-23T14:50:05;20.70;27.60
48515;DHT22;34309;47.260;2.796;2024-03-23T14:52:36;20.70;27.50
48515;DHT22;34309;47.260;2.796;2024-03-23T14:55:02;20.70;27.60
48515;DHT22;34309;47.260;2.796;2024-03-23T14:57:30;20.70;27.50
48515;DHT22;34309;47.260;2.796;2024-03-23T14:59:56;20.70;27.40
48515;DHT22;34309;47.260;2.796;2024-03-23T15:02:24;20.70;27.60
48515;DHT22;34309;47.260;2.796;2024-03-23T15:04:50;20.70;27.50
48515;DHT22;34309;47.260;2.796;2024-03-23T15:07:18;20.70;27.30
48515;DHT22;34309;47.260;2.796;2024-03-23T15:09:46;20.70;27.20
48515;DHT22;34309;47.260;2.796;2024-03-23T15:12:14;20.70;27.40
48515;DHT22;34309;47.260;2.796;2024-03-23T15:14:40;20.70;27.50
48515;DHT22;34309;47.260;2.796;2024-03-23T15:17:09;20.70;27.40
48515;DHT22;34309;47.260;2.796;2024-03-23T15:19:37;20.70;27.50
48515;DHT22;34309;47.260;2.796;2024-03-23T15:22:04;20.70;28.00
48515;DHT22;34309;47.260;2.796;2024-03-23T15:24:31;20.70;27.50
48515;DHT22;34309;47.260;2.796;2024-03-23T15:27:01;20.70;27.60
48515;DHT22;34309;47.260;2.796;2024-03-23T15:29:29;20.70;27.40
48515;DHT22;34309;47.260;2.796;2024-03-23T15:31:57;20.70;27.40
48515;DHT22;34309;47.260;2.796;2024-03-23T15:34:26;20.70;27.30
48515;DHT22;34309;47.260;2.796;2024-03-23T15:36:53;20.60;27.30
48515;DHT22;34309;47.260;2.796;2024-03-23T15:39:20;20.60;27.30
48515;DHT22;34309;47.260;2.796;2024-03-23T15:41:49;20.70;27.30
48515;DHT22;34309;47.260;2.796;2024-03-23T15:44:17;20.60;27.30
48515;DHT22;34309;47.260;2.796;2024-03-23T15:46:44;20.70;27.40
48515;DHT22;34309;47.260;2.796;2024-03-23T15:49:11;20.60;27.40
48515;DHT22;34309;47.260;2.796;2024-03-23T15:51:41;20.60;27.30
48515;DHT22;34309;47.260;2.796;2024-03-23T15:54:10;20.60;27.30
48515;DHT22;34309;47.260;2.796;2024-03-23T15:56:39;20.70;27.40
48515;DHT22;34309;47.260;2.796;2024-03-23T15:59:05;20.70;27.30
48515;DHT22;34309;47.260;2.796;2024-03-23T16:01:35;20.60;27.20
48515;DHT22;34309;47.260;2.796;2024-03-23T16:04:01;20.70;27.20
48515;DHT22;34309;47.260;2.796;2024-03-23T16:06:29;20.60;27.30
48515;DHT22;34309;47.260;2.796;2024-03-23T16:08:55;20.70;27.50
48515;DHT22;34309;47.260;2.796;2024-03-23T16:11:23;20.60;27.30
48515;DHT22;34309;47.260;2.796;2024-03-23T16:13:51;20.70;27.40
48515;DHT22;34309;47.260;2.796;2024-03-23T16:16:19;20.60;27.30
48515;DHT22;34309;47.260;2.796;2024-03-23T16:18:51;20.70;27.40
48515;DHT22;34309;47.260;2.796;2024-03-23T16:21:18;20.60;27.30
48515;DHT22;34309;47.260;2.796;2024-03-23T16:23:45;20.70;27.20
48515;DHT22;34309;47.260;2.796;2024-03-23T16:26:12;20.60;27.20
48515;DHT22;34309;47.260;2.796;2024-03-23T16:28:40;20.60;27.30